createdAt,value
2018-04-01T00:00:58.833Z,59.04
2018-04-01T00:03:27.310Z,58.61
2018-04-01T00:05:55.812Z,56.96
2018-04-01T00:08:23.888Z,57.31
2018-04-01T00:10:51.702Z,56.10
2018-04-01T00:13:19.508Z,57.69
2018-04-01T00:15:47.556Z,55.79
2018-04-01T00:18:15.425Z,58.60
2018-04-01T00:20:43.385Z,57.26
2018-04-01T00:23:12.440Z,60.06
2018-04-01T00:25:40.814Z,61.62
2018-04-01T00:28:08.950Z,60.03
2018-04-01T00:30:36.934Z,60.01
2018-04-01T00:33:05.343Z,60.17
2018-04-01T00:35:33.158Z,59.22
2018-04-01T00:38:01.114Z,60.96
2018-04-01T00:40:28.859Z,58.87
2018-04-01T00:42:56.613Z,59.53
2018-04-01T00:45:25.372Z,61.35
2018-04-01T00:47:52.979Z,58.84
2018-04-01T00:50:20.616Z,57.91
2018-04-01T00:52:48.284Z,59.26
2018-04-01T00:55:15.906Z,58.38
2018-04-01T00:57:43.564Z,57.69
2018-04-01T01:00:11.196Z,57.50
2018-04-01T01:02:43.452Z,55.63
2018-04-01T01:05:11.376Z,59.18
2018-04-01T01:07:39.019Z,57.92
2018-04-01T01:10:23.667Z,58.76
2018-04-01T01:12:51.997Z,58.32
2018-04-01T01:15:28.989Z,58.87
2018-04-01T01:17:56.869Z,59.98
2018-04-01T01:20:24.863Z,59.37
2018-04-01T01:22:58.385Z,60.36
2018-04-01T01:25:30.657Z,62.10
2018-04-01T01:27:58.230Z,62.20
2018-04-01T01:30:34.145Z,60.28
2018-04-01T01:33:02.544Z,60.40
2018-04-01T01:35:30.209Z,60.50
2018-04-01T01:37:57.853Z,59.56
2018-04-01T01:40:25.670Z,60.35
2018-04-01T01:42:53.594Z,62.33
2018-04-01T01:45:21.230Z,64.97
2018-04-01T01:47:49.137Z,65.20
2018-04-01T01:50:16.979Z,63.79
2018-04-01T01:52:44.828Z,64.77
2018-04-01T01:55:12.382Z,64.49
2018-04-01T01:57:40.196Z,64.00
2018-04-01T02:00:07.761Z,63.40
2018-04-01T02:02:35.610Z,64.05
2018-04-01T02:05:03.283Z,63.04
2018-04-01T02:07:31.170Z,64.23
2018-04-01T02:09:58.943Z,64.34
2018-04-01T02:12:26.578Z,64.65
2018-04-01T02:14:54.551Z,65.32
2018-04-01T02:17:22.302Z,63.67
2018-04-01T02:19:50.038Z,62.38
2018-04-01T02:22:17.962Z,63.13
2018-04-01T02:24:45.910Z,64.57
2018-04-01T02:27:13.582Z,64.14
2018-04-01T02:29:41.230Z,65.29
2018-04-01T02:32:08.943Z,63.75
2018-04-01T02:34:36.700Z,63.79
2018-04-01T02:37:04.568Z,65.24
2018-04-01T02:39:32.379Z,63.82
2018-04-01T02:42:00.140Z,65.65
2018-04-01T02:44:27.759Z,64.14
2018-04-01T02:46:55.617Z,63.29
2018-04-01T02:49:23.404Z,61.29
2018-04-01T02:51:51.247Z,61.19
2018-04-01T02:54:19.000Z,62.72
2018-04-01T02:56:47.183Z,60.88
2018-04-01T02:59:15.584Z,64.00
2018-04-01T03:01:43.571Z,63.20
2018-04-01T03:04:11.786Z,63.43
2018-04-01T03:06:40.857Z,62.89
2018-04-01T03:09:08.689Z,63.50
2018-04-01T03:11:36.281Z,63.26
2018-04-01T03:14:04.477Z,62.87
2018-04-01T03:16:32.558Z,64.25
2018-04-01T03:19:00.558Z,63.61
2018-04-01T03:21:28.292Z,67.15
2018-04-01T03:23:56.160Z,66.37
2018-04-01T03:26:24.045Z,68.08
2018-04-01T03:28:51.994Z,69.21
2018-04-01T03:31:19.600Z,67.54
2018-04-01T03:33:47.845Z,65.26
2018-04-01T03:36:15.897Z,66.24
2018-04-01T03:38:43.773Z,68.84
2018-04-01T03:41:11.729Z,65.55
2018-04-01T03:43:40.134Z,64.31
2018-04-01T03:46:08.175Z,64.60
2018-04-01T03:48:35.943Z,66.70
2018-04-01T03:51:03.609Z,66.69
2018-04-01T03:53:31.290Z,66.44
2018-04-01T03:55:59.291Z,66.98
2018-04-01T03:58:27.224Z,65.81
2018-04-01T04:00:54.853Z,64.75
2018-04-01T04:03:22.546Z,64.83
2018-04-01T04:05:50.514Z,64.76
2018-04-01T04:08:18.574Z,65.54
2018-04-01T04:10:46.231Z,67.59
2018-04-01T04:13:13.868Z,66.57
2018-04-01T04:15:41.524Z,69.63
2018-04-01T04:18:09.669Z,66.52
2018-04-01T04:20:37.489Z,66.69
2018-04-01T04:23:05.141Z,66.76
2018-04-01T04:25:32.852Z,66.02
2018-04-01T04:28:00.593Z,65.92
2018-04-01T04:30:28.139Z,64.32
2018-04-01T04:32:55.840Z,65.90
2018-04-01T04:35:23.802Z,64.88
2018-04-01T04:37:51.527Z,65.21
2018-04-01T04:40:19.377Z,65.08
2018-04-01T04:42:47.074Z,64.55
2018-04-01T04:45:14.768Z,64.56
2018-04-01T04:47:42.561Z,63.91
2018-04-01T04:50:11.287Z,64.35
2018-04-01T04:52:39.499Z,65.35
2018-04-01T04:55:08.250Z,65.68
2018-04-01T04:57:35.901Z,65.79
2018-04-01T05:00:03.717Z,65.39
2018-04-01T05:02:31.645Z,66.31
2018-04-01T05:04:59.525Z,65.93
2018-04-01T05:07:27.466Z,63.71
2018-04-01T05:09:55.562Z,63.02
2018-04-01T05:12:23.540Z,63.86
2018-04-01T05:14:51.291Z,62.65
2018-04-01T05:17:19.060Z,61.34
2018-04-01T05:19:46.724Z,65.28
2018-04-01T05:22:14.584Z,62.78
2018-04-01T05:24:42.547Z,65.49
2018-04-01T05:27:10.772Z,63.87
2018-04-01T05:29:39.913Z,65.68
2018-04-01T05:32:08.161Z,66.11
2018-04-01T05:34:37.058Z,65.98
2018-04-01T05:37:05.075Z,65.30
2018-04-01T05:39:32.817Z,63.27
2018-04-01T05:42:00.418Z,65.25
2018-04-01T05:44:28.151Z,65.77
2018-04-01T05:46:55.971Z,64.99
2018-04-01T05:49:23.896Z,66.10
2018-04-01T05:51:51.633Z,64.31
2018-04-01T05:54:19.427Z,66.71
2018-04-01T05:56:47.156Z,63.96
2018-04-01T05:59:15.142Z,62.50
2018-04-01T06:01:42.745Z,62.89
2018-04-01T06:04:10.448Z,62.13
2018-04-01T06:06:38.137Z,64.35
2018-04-01T06:09:06.421Z,63.85
2018-04-01T06:11:34.269Z,64.83
2018-04-01T06:14:02.055Z,63.72
2018-04-01T06:16:29.917Z,62.99
2018-04-01T06:18:57.870Z,62.96
2018-04-01T06:21:25.630Z,63.14
2018-04-01T06:23:53.696Z,63.53
2018-04-01T06:26:21.691Z,62.06
2018-04-01T06:28:49.483Z,60.00
2018-04-01T06:31:17.221Z,60.91
2018-04-01T06:33:45.110Z,60.78
2018-04-01T06:36:13.056Z,61.59
2018-04-01T06:38:40.799Z,60.84
2018-04-01T06:41:08.707Z,59.05
2018-04-01T06:43:36.650Z,60.37
2018-04-01T06:46:04.316Z,61.78
2018-04-01T06:48:32.247Z,59.04
2018-04-01T06:51:00.106Z,60.28
2018-04-01T06:53:27.927Z,60.93
2018-04-01T06:55:55.676Z,59.74
2018-04-01T06:58:23.331Z,56.74
2018-04-01T07:01:06.141Z,54.82
2018-04-01T07:03:34.128Z,57.33
2018-04-01T07:06:06.732Z,57.74
2018-04-01T07:08:34.786Z,55.08
2018-04-01T07:11:02.549Z,54.45
2018-04-01T07:13:30.692Z,55.69
2018-04-01T07:15:58.705Z,60.06
2018-04-01T07:18:26.410Z,58.75
2018-04-01T07:20:54.017Z,61.11
2018-04-01T07:23:21.709Z,63.30
2018-04-01T07:25:49.567Z,62.70
2018-04-01T07:28:17.637Z,63.30
2018-04-01T07:30:45.997Z,62.10
2018-04-01T07:33:13.724Z,59.95
2018-04-01T07:35:41.785Z,61.67
2018-04-01T07:38:09.914Z,62.91
2018-04-01T07:40:37.815Z,61.43
2018-04-01T07:43:05.648Z,60.90
2018-04-01T07:45:33.728Z,62.59
2018-04-01T07:48:01.479Z,59.99
2018-04-01T07:50:29.221Z,59.79
2018-04-01T07:52:58.432Z,58.35
2018-04-01T07:55:26.803Z,58.08
2018-04-01T07:57:54.704Z,57.18
2018-04-01T08:00:22.448Z,58.28
2018-04-01T08:02:50.686Z,59.35
2018-04-01T08:05:20.024Z,59.13
2018-04-01T08:07:48.165Z,60.27
2018-04-01T08:10:16.026Z,60.90
2018-04-01T08:12:43.765Z,58.86
2018-04-01T08:15:12.647Z,56.94
2018-04-01T08:17:40.695Z,58.44
2018-04-01T08:20:08.722Z,60.25
2018-04-01T08:22:37.244Z,59.26
2018-04-01T08:25:05.300Z,60.10
2018-04-01T08:27:33.160Z,60.00
2018-04-01T08:30:01.284Z,58.75
2018-04-01T08:32:29.838Z,59.22
2018-04-01T08:34:57.622Z,60.82
2018-04-01T08:37:25.820Z,62.46
2018-04-01T08:39:53.752Z,60.92
2018-04-01T08:42:21.604Z,59.71
2018-04-01T08:44:49.420Z,61.44
2018-04-01T08:47:17.534Z,61.19
2018-04-01T08:49:45.517Z,60.53
2018-04-01T08:52:13.587Z,59.54
2018-04-01T08:54:41.619Z,60.31
2018-04-01T08:57:09.673Z,59.70
2018-04-01T08:59:38.123Z,58.72
2018-04-01T09:02:06.290Z,58.87
2018-04-01T09:04:34.887Z,60.06
2018-04-01T09:07:02.978Z,60.32
2018-04-01T09:09:31.265Z,60.54
2018-04-01T09:11:59.773Z,60.42
2018-04-01T09:14:28.069Z,60.61
2018-04-01T09:16:56.484Z,61.85
2018-04-01T09:19:24.647Z,61.57
2018-04-01T09:21:53.061Z,61.91
2018-04-01T09:24:22.717Z,62.56
2018-04-01T09:26:50.841Z,61.61
2018-04-01T09:29:19.129Z,59.83
2018-04-01T09:31:47.284Z,60.08
2018-04-01T09:34:15.653Z,57.13
2018-04-01T09:36:45.745Z,58.53
2018-04-01T09:39:15.114Z,57.70
2018-04-01T09:41:43.835Z,58.69
2018-04-01T09:44:12.939Z,60.61
2018-04-01T09:46:41.120Z,58.21
2018-04-01T09:49:10.829Z,58.31
2018-04-01T09:51:39.603Z,56.47
2018-04-01T09:54:09.724Z,57.75
2018-04-01T09:56:37.759Z,59.76
2018-04-01T09:59:08.002Z,58.08
2018-04-01T10:01:36.502Z,58.29
2018-04-01T10:04:05.479Z,59.83
2018-04-01T10:06:34.566Z,57.83
2018-04-01T10:09:04.824Z,59.23
2018-04-01T10:11:33.694Z,58.01
2018-04-01T10:14:02.657Z,57.94
2018-04-01T10:16:32.239Z,59.40
2018-04-01T10:19:01.096Z,58.09
2018-04-01T10:21:30.366Z,58.13
2018-04-01T10:23:59.283Z,57.85
2018-04-01T10:26:28.126Z,59.46
2018-04-01T10:28:57.560Z,58.82
2018-04-01T10:31:26.849Z,59.11
2018-04-01T10:33:56.010Z,59.35
2018-04-01T10:36:25.589Z,58.87
2018-04-01T10:38:54.664Z,59.50
2018-04-01T10:41:37.970Z,61.88
2018-04-01T10:44:07.088Z,61.33
2018-04-01T10:46:36.361Z,60.33
2018-04-01T10:49:05.119Z,62.02
2018-04-01T10:51:34.488Z,62.42
2018-04-01T10:54:03.338Z,63.15
2018-04-01T10:56:31.964Z,61.01
2018-04-01T10:59:00.427Z,60.27
2018-04-01T11:01:28.905Z,62.94
2018-04-01T11:03:57.168Z,63.22
2018-04-01T11:06:25.566Z,63.02
2018-04-01T11:08:53.552Z,61.76
2018-04-01T11:11:22.240Z,62.15
2018-04-01T11:13:51.109Z,66.53
2018-04-01T11:16:18.854Z,62.90
2018-04-01T11:18:46.628Z,65.72
2018-04-01T11:21:14.461Z,62.41
2018-04-01T11:23:42.321Z,61.89
2018-04-01T11:26:10.532Z,63.82
2018-04-01T11:28:38.566Z,66.36
2018-04-01T11:31:08.453Z,66.22
2018-04-01T11:33:37.138Z,65.60
2018-04-01T11:36:05.626Z,66.75
2018-04-01T11:38:37.011Z,65.75
2018-04-01T11:41:06.438Z,67.69
2018-04-01T11:43:35.178Z,66.70
2018-04-01T11:46:03.485Z,67.21
2018-04-01T11:48:31.813Z,65.39
2018-04-01T11:51:00.935Z,63.97
2018-04-01T11:53:33.694Z,63.54
2018-04-01T11:56:02.572Z,65.65
2018-04-01T11:58:31.849Z,64.44
2018-04-01T12:01:00.120Z,61.62
2018-04-01T12:03:29.873Z,61.92
2018-04-01T12:05:58.784Z,62.61
2018-04-01T12:08:26.550Z,63.52
2018-04-01T12:10:54.279Z,62.36
2018-04-01T12:13:22.835Z,62.76
2018-04-01T12:15:51.168Z,62.62
2018-04-01T12:18:20.338Z,62.44
2018-04-01T12:20:49.071Z,63.79
2018-04-01T12:23:16.876Z,64.57
2018-04-01T12:25:44.761Z,63.79
2018-04-01T12:28:12.566Z,61.12
2018-04-01T12:30:41.463Z,60.39
2018-04-01T12:33:10.279Z,59.19
2018-04-01T12:35:39.541Z,61.02
2018-04-01T12:38:08.353Z,61.47
2018-04-01T12:40:37.438Z,63.53
2018-04-01T12:43:05.630Z,62.37
2018-04-01T12:45:34.987Z,63.51
2018-04-01T12:48:04.665Z,63.80
2018-04-01T12:50:33.197Z,61.20
2018-04-01T12:53:01.580Z,61.17
2018-04-01T12:55:29.751Z,60.90
2018-04-01T12:57:57.901Z,61.82
2018-04-01T13:00:26.321Z,63.37
2018-04-01T13:02:54.321Z,62.42
2018-04-01T13:05:24.354Z,61.52
2018-04-01T13:07:53.307Z,61.21
2018-04-01T13:10:21.400Z,63.59
2018-04-01T13:12:49.684Z,62.36
2018-04-01T13:15:17.852Z,63.36
2018-04-01T13:17:46.268Z,62.84
2018-04-01T13:20:14.360Z,61.50
2018-04-01T13:22:43.012Z,62.76
2018-04-01T13:25:10.938Z,62.14
2018-04-01T13:27:39.646Z,61.72
2018-04-01T13:30:08.820Z,65.20
2018-04-01T13:32:38.487Z,67.17
2018-04-01T13:35:07.468Z,64.23
2018-04-01T13:37:35.851Z,66.91
2018-04-01T13:40:03.817Z,64.82
2018-04-01T13:42:37.503Z,62.89
2018-04-01T13:45:05.975Z,65.35
2018-04-01T13:47:34.391Z,62.80
2018-04-01T13:50:02.850Z,64.91
2018-04-01T13:52:31.211Z,63.53
2018-04-01T13:54:59.454Z,63.61
2018-04-01T13:57:28.081Z,63.13
2018-04-01T13:59:56.523Z,64.68
2018-04-01T14:02:25.379Z,63.65
2018-04-01T14:04:53.772Z,62.63
2018-04-01T14:07:22.240Z,63.11
2018-04-01T14:09:50.303Z,64.08
2018-04-01T14:12:18.312Z,63.31
2018-04-01T14:14:46.864Z,63.95
2018-04-01T14:17:15.031Z,64.88
2018-04-01T14:19:43.294Z,61.36
2018-04-01T14:22:11.374Z,60.00
2018-04-01T14:24:42.187Z,60.75
2018-04-01T14:27:10.307Z,62.54
2018-04-01T14:29:39.660Z,61.63
2018-04-01T14:32:07.808Z,61.44
2018-04-01T14:34:35.842Z,61.47
2018-04-01T14:37:05.545Z,61.64
2018-04-01T14:39:34.464Z,62.50
2018-04-01T14:42:02.167Z,62.18
2018-04-01T14:44:30.321Z,60.55
2018-04-01T14:46:59.408Z,60.13
2018-04-01T14:49:27.440Z,61.30
2018-04-01T14:51:55.297Z,60.69
2018-04-01T14:54:23.462Z,59.12
2018-04-01T14:56:51.345Z,59.01
2018-04-01T14:59:19.580Z,59.50
2018-04-01T15:01:48.302Z,59.31
2018-04-01T15:07:06.378Z,59.53
2018-04-01T15:12:12.126Z,60.84
2018-04-01T15:14:40.411Z,60.90
2018-04-01T15:17:09.476Z,60.43
2018-04-01T15:19:38.038Z,60.63
2018-04-01T15:22:06.780Z,62.05
2018-04-01T15:24:36.075Z,61.12
2018-04-01T15:27:05.973Z,62.90
2018-04-01T15:29:35.357Z,60.45
2018-04-01T15:32:07.266Z,61.83
2018-04-01T15:34:37.610Z,59.33
2018-04-01T15:37:08.156Z,60.00
2018-04-01T15:39:37.460Z,59.11
2018-04-01T15:42:11.002Z,59.58
2018-04-01T15:44:41.856Z,62.11
2018-04-01T15:47:14.532Z,62.57
2018-04-01T15:49:44.875Z,62.47
2018-04-01T15:52:14.710Z,62.46
2018-04-01T15:54:42.744Z,64.27
2018-04-01T15:57:10.765Z,64.42
2018-04-01T15:59:39.748Z,64.92
2018-04-01T16:02:09.945Z,64.12
2018-04-01T16:04:40.522Z,63.37
2018-04-01T16:07:08.741Z,61.46
2018-04-01T16:09:38.814Z,61.90
2018-04-01T16:12:06.906Z,63.38
2018-04-01T16:14:36.284Z,63.20
2018-04-01T16:17:04.789Z,61.15
2018-04-01T16:19:34.483Z,62.26
2018-04-01T16:22:02.331Z,62.04
2018-04-01T16:24:39.934Z,61.64
2018-04-01T16:27:08.429Z,62.01
2018-04-01T16:29:36.351Z,61.23
2018-04-01T16:32:09.084Z,61.34
2018-04-01T16:34:37.841Z,59.54
2018-04-01T16:37:07.618Z,63.75
2018-04-01T16:39:36.024Z,62.53
2018-04-01T16:42:03.679Z,61.50
2018-04-01T16:44:31.335Z,60.56
2018-04-01T16:46:58.905Z,60.52
2018-04-01T16:49:26.503Z,60.66
2018-04-01T16:51:54.144Z,61.29
2018-04-01T16:54:21.718Z,61.33
2018-04-01T16:56:49.312Z,62.26
2018-04-01T16:59:16.935Z,62.28
2018-04-01T17:01:44.527Z,61.91
2018-04-01T17:04:12.273Z,61.08
2018-04-01T17:06:39.924Z,60.73
2018-04-01T17:09:07.520Z,60.10
2018-04-01T17:11:35.128Z,61.02
2018-04-01T17:14:02.726Z,61.29
2018-04-01T17:16:30.377Z,62.32
2018-04-01T17:18:57.966Z,62.01
2018-04-01T17:21:25.571Z,63.25
2018-04-01T17:23:53.162Z,60.87
2018-04-01T17:26:20.723Z,63.42
2018-04-01T17:28:48.328Z,63.00
2018-04-01T17:31:15.920Z,63.96
2018-04-01T17:33:43.601Z,63.45
2018-04-01T17:36:11.175Z,61.04
2018-04-01T17:38:38.761Z,60.54
2018-04-01T17:41:06.296Z,61.14
2018-04-01T17:43:33.886Z,60.81
2018-04-01T17:46:01.497Z,59.66
2018-04-01T17:48:29.135Z,60.28
2018-04-01T17:50:56.859Z,62.52
2018-04-01T17:53:24.403Z,62.29
2018-04-01T17:55:52.103Z,61.99
2018-04-01T17:58:19.695Z,60.31
2018-04-01T18:00:47.300Z,62.39
2018-04-01T18:03:14.885Z,61.38
2018-04-01T18:05:42.459Z,62.96
2018-04-01T18:08:10.066Z,61.80
2018-04-01T18:10:37.639Z,62.88
2018-04-01T18:13:05.240Z,62.91
2018-04-01T18:15:32.861Z,62.43
2018-04-01T18:18:00.493Z,62.67
2018-04-01T18:20:28.116Z,60.05
2018-04-01T18:22:55.667Z,59.54
2018-04-01T18:25:23.248Z,60.57
2018-04-01T18:27:50.785Z,58.89
2018-04-01T18:30:18.320Z,62.00
2018-04-01T18:32:45.914Z,59.55
2018-04-01T18:35:13.476Z,59.73
2018-04-01T18:37:41.007Z,60.16
2018-04-01T18:40:08.651Z,59.89
2018-04-01T18:42:36.972Z,58.68
2018-04-01T18:45:04.822Z,62.16
2018-04-01T18:47:32.429Z,61.30
2018-04-01T18:49:59.975Z,60.88
2018-04-01T18:52:27.552Z,61.20
2018-04-01T18:54:55.151Z,62.69
2018-04-01T18:57:23.270Z,61.67
2018-04-01T18:59:50.871Z,62.42
2018-04-01T19:02:18.468Z,61.86
2018-04-01T19:04:46.172Z,61.47
2018-04-01T19:07:13.871Z,60.97
2018-04-01T19:09:41.440Z,58.04
2018-04-01T19:12:09.027Z,60.32
2018-04-01T19:14:36.689Z,57.94
2018-04-01T19:17:08.237Z,59.00
2018-04-01T19:19:36.675Z,59.70
2018-04-01T19:22:05.086Z,58.94
2018-04-01T19:24:33.499Z,59.67
2018-04-01T19:27:01.914Z,61.42
2018-04-01T19:29:30.294Z,59.24
2018-04-01T19:31:58.832Z,59.38
2018-04-01T19:34:27.208Z,57.53
2018-04-01T19:36:55.696Z,58.38
2018-04-01T19:39:24.071Z,58.46
2018-04-01T19:41:52.513Z,59.54
2018-04-01T19:44:20.921Z,60.31
2018-04-01T19:46:49.330Z,58.21
2018-04-01T19:49:17.768Z,58.95
2018-04-01T19:51:46.200Z,61.62
2018-04-01T19:54:14.581Z,58.14
2018-04-01T19:56:43.075Z,57.73
2018-04-01T19:59:11.487Z,56.95
2018-04-01T20:01:39.918Z,56.45
2018-04-01T20:04:08.297Z,55.69
2018-04-01T20:06:36.925Z,55.65
2018-04-01T20:09:06.215Z,55.75
2018-04-01T20:11:34.680Z,55.40
2018-04-01T20:14:03.173Z,56.76
2018-04-01T20:16:31.583Z,56.72
2018-04-01T20:19:00.009Z,58.82
2018-04-01T20:21:28.434Z,57.16
2018-04-01T20:23:56.896Z,56.70
2018-04-01T20:26:25.367Z,56.97
2018-04-01T20:28:53.806Z,57.30
2018-04-01T20:31:22.203Z,57.64
2018-04-01T20:33:50.628Z,58.08
2018-04-01T20:36:19.029Z,58.72
2018-04-01T20:38:47.492Z,58.79
2018-04-01T20:41:15.902Z,57.51
2018-04-01T20:43:44.368Z,57.94
2018-04-01T20:46:12.780Z,57.54
2018-04-01T20:48:41.211Z,58.10
2018-04-01T20:51:09.670Z,57.99
2018-04-01T20:53:38.111Z,58.98
2018-04-01T20:56:06.594Z,59.70
2018-04-01T20:58:35.066Z,61.01
2018-04-01T21:01:03.486Z,58.69
2018-04-01T21:03:31.962Z,58.83
2018-04-01T21:06:00.370Z,59.71
2018-04-01T21:08:28.795Z,60.17
2018-04-01T21:10:57.195Z,58.50
2018-04-01T21:13:25.629Z,58.63
2018-04-01T21:15:54.210Z,58.27
2018-04-01T21:18:22.612Z,59.53
2018-04-01T21:20:51.012Z,59.26
2018-04-01T21:23:19.446Z,60.33
2018-04-01T21:25:47.883Z,60.62
2018-04-01T21:28:16.365Z,59.35
2018-04-01T21:30:44.791Z,63.02
2018-04-01T21:33:13.167Z,62.80
2018-04-01T21:35:41.554Z,63.55
2018-04-01T21:38:10.008Z,63.37
2018-04-01T21:40:38.438Z,61.19
2018-04-01T21:43:06.816Z,59.90
2018-04-01T21:45:35.256Z,60.56
2018-04-01T21:48:03.606Z,61.37
2018-04-01T21:50:31.984Z,61.79
2018-04-01T21:53:00.408Z,61.40
2018-04-01T21:55:28.784Z,59.93
2018-04-01T21:57:57.173Z,62.44
2018-04-01T22:00:25.552Z,62.94
2018-04-01T22:02:53.935Z,61.53
2018-04-01T22:05:22.360Z,61.03
2018-04-01T22:07:50.781Z,62.18
2018-04-01T22:10:19.432Z,62.59
2018-04-01T22:12:47.940Z,62.74
2018-04-01T22:15:16.352Z,62.23
2018-04-01T22:17:45.805Z,62.08
2018-04-01T22:20:14.228Z,64.66
2018-04-01T22:22:54.367Z,64.34
2018-04-01T22:25:22.776Z,63.01
2018-04-01T22:27:51.239Z,60.08
2018-04-01T22:30:19.628Z,63.61
2018-04-01T22:32:48.119Z,64.44
2018-04-01T22:35:16.610Z,62.29
2018-04-01T22:37:45.028Z,61.90
2018-04-01T22:40:13.442Z,64.47
2018-04-01T22:42:41.848Z,65.03
2018-04-01T22:45:10.279Z,60.58
2018-04-01T22:47:38.743Z,62.40
2018-04-01T22:50:07.421Z,61.61
2018-04-01T22:52:35.902Z,62.90
2018-04-01T22:55:04.313Z,60.16
2018-04-01T22:57:32.718Z,58.94
2018-04-01T23:00:01.267Z,58.56
2018-04-01T23:02:29.387Z,59.11
2018-04-01T23:04:57.885Z,57.77
2018-04-01T23:07:26.297Z,57.97
2018-04-01T23:09:54.716Z,57.84
2018-04-01T23:12:23.188Z,58.10
2018-04-01T23:14:51.592Z,58.56
2018-04-01T23:17:20.019Z,59.23
2018-04-01T23:19:48.435Z,58.39
2018-04-01T23:22:16.844Z,58.55
2018-04-01T23:24:45.263Z,60.04
2018-04-01T23:27:13.765Z,62.14
2018-04-01T23:29:42.344Z,62.24
2018-04-01T23:32:10.742Z,61.63
2018-04-01T23:34:39.172Z,60.76
2018-04-01T23:37:07.881Z,61.38
2018-04-01T23:39:36.420Z,60.03
2018-04-01T23:42:04.920Z,58.92
2018-04-01T23:44:33.318Z,58.32
2018-04-01T23:47:01.746Z,57.71
2018-04-01T23:49:30.150Z,57.70
2018-04-01T23:51:58.601Z,57.35
2018-04-01T23:54:27.032Z,56.89
2018-04-01T23:56:55.432Z,58.19
2018-04-01T23:59:23.875Z,56.95
